Terminal Aerodrome Forecast
Issued by NWS

Home | Current Version | Previous Version | Text Only | Print | Product List | Glossary Off
Versions: 1 2 3 4 5 6 7 8 9 10 11 12 13 14 15 16

000
FTUS43 KBIS 100500
TAFDIK
TAF
KDIK 100533Z 1006/1106 15008KT P6SM FEW060
     FM101500 17011KT P6SM SCT100 BKN250
     FM101800 18014KT P6SM SCT080
     FM110300 03006KT P6SM FEW120=

USA.gov is the U.S. government's official web portal to all federal, state and local government web resources and services.